sensor_id;sensor_type;location;lat;lon;timestamp;pressure;altitude;pressure_sealevel;temperature;humidity
13954;BME280;7049;49.444;8.522;2023-05-29T00:44:37;-11160.47;;;-3.47;48.73
13954;BME280;7049;49.444;8.522;2023-05-29T00:49:53;-11160.47;;;-3.47;49.09
13954;BME280;7049;49.444;8.522;2023-05-29T00:55:13;-11160.47;;;-3.47;49.43
13954;BME280;7049;49.444;8.522;2023-05-29T01:00:58;-11160.47;;;-3.47;49.05
13954;BME280;7049;49.444;8.522;2023-05-29T01:06:21;-11160.47;;;-3.47;48.83
13954;BME280;7049;49.444;8.522;2023-05-29T01:11:32;-11160.47;;;-3.47;49.55
13954;BME280;7049;49.444;8.522;2023-05-29T01:16:54;-11160.47;;;-3.47;49.76
13954;BME280;7049;49.444;8.522;2023-05-29T01:22:19;-11160.47;;;-3.47;49.86
13954;BME280;7049;49.444;8.522;2023-05-29T01:27:41;-11160.47;;;-3.47;49.77
13954;BME280;7049;49.444;8.522;2023-05-29T01:32:58;-11160.47;;;-3.47;50.27
13954;BME280;7049;49.444;8.522;2023-05-29T01:38:07;-11160.47;;;-3.47;50.46
13954;BME280;7049;49.444;8.522;2023-05-29T01:43:29;-11160.47;;;-3.47;50.97
13954;BME280;7049;49.444;8.522;2023-05-29T01:48:42;-11160.47;;;-3.47;50.81
13954;BME280;7049;49.444;8.522;2023-05-29T02:10:03;-11160.47;;;-3.47;49.18
13954;BME280;7049;49.444;8.522;2023-05-29T02:15:06;-11160.47;;;-3.47;49.46
13954;BME280;7049;49.444;8.522;2023-05-29T02:54:27;-11160.47;;;-3.47;54.10
13954;BME280;7049;49.444;8.522;2023-05-29T02:59:28;-11160.47;;;-3.47;54.27
13954;BME280;7049;49.444;8.522;2023-05-29T03:04:30;-11160.47;;;-3.47;53.76
13954;BME280;7049;49.444;8.522;2023-05-29T03:09:32;-11160.47;;;-3.47;54.55
13954;BME280;7049;49.444;8.522;2023-05-29T03:14:34;-11160.47;;;-3.47;55.09
13954;BME280;7049;49.444;8.522;2023-05-29T03:19:36;-11160.47;;;-3.47;55.31
13954;BME280;7049;49.444;8.522;2023-05-29T03:24:40;-11160.47;;;-3.47;55.49
13954;BME280;7049;49.444;8.522;2023-05-29T03:29:41;-11160.47;;;-3.47;55.50
13954;BME280;7049;49.444;8.522;2023-05-29T03:34:43;-11160.47;;;-3.47;55.34
13954;BME280;7049;49.444;8.522;2023-05-29T03:39:46;-11160.47;;;-3.47;55.29
13954;BME280;7049;49.444;8.522;2023-05-29T03:44:47;-11160.47;;;-3.47;55.25
13954;BME280;7049;49.444;8.522;2023-05-29T03:49:48;-11160.47;;;-3.47;55.52
13954;BME280;7049;49.444;8.522;2023-05-29T03:54:51;-11160.47;;;-3.47;55.40
13954;BME280;7049;49.444;8.522;2023-05-29T03:59:53;-11160.47;;;-3.47;55.66
13954;BME280;7049;49.444;8.522;2023-05-29T04:04:54;-11160.47;;;-3.47;55.09
13954;BME280;7049;49.444;8.522;2023-05-29T04:09:57;-11160.47;;;-3.47;54.22
13954;BME280;7049;49.444;8.522;2023-05-29T04:14:59;-11160.47;;;-3.47;54.89
13954;BME280;7049;49.444;8.522;2023-05-29T04:20:01;-11160.47;;;-3.47;55.01
13954;BME280;7049;49.444;8.522;2023-05-29T04:25:09;-11160.47;;;-3.47;55.07
13954;BME280;7049;49.444;8.522;2023-05-29T04:30:11;-11160.47;;;-3.47;55.55
13954;BME280;7049;49.444;8.522;2023-05-29T04:35:13;-11160.47;;;-3.47;54.22
13954;BME280;7049;49.444;8.522;2023-05-29T04:40:15;-11160.47;;;-3.47;52.87
13954;BME280;7049;49.444;8.522;2023-05-29T04:45:19;-11160.47;;;-3.47;52.68
13954;BME280;7049;49.444;8.522;2023-05-29T04:50:21;-11160.47;;;-3.47;52.47
13954;BME280;7049;49.444;8.522;2023-05-29T04:55:25;-11160.47;;;-3.47;52.65
13954;BME280;7049;49.444;8.522;2023-05-29T05:00:27;-11160.47;;;-3.47;52.93
13954;BME280;7049;49.444;8.522;2023-05-29T05:05:29;-11160.47;;;-3.47;53.01
13954;BME280;7049;49.444;8.522;2023-05-29T05:10:32;-11160.47;;;-3.47;53.05
13954;BME280;7049;49.444;8.522;2023-05-29T05:15:34;-11160.47;;;-3.47;51.85
13954;BME280;7049;49.444;8.522;2023-05-29T05:20:35;-11160.47;;;-3.47;51.27
13954;BME280;7049;49.444;8.522;2023-05-29T05:25:40;-11160.47;;;-3.47;50.93
13954;BME280;7049;49.444;8.522;2023-05-29T05:30:42;-11160.47;;;-3.47;50.95
13954;BME280;7049;49.444;8.522;2023-05-29T05:35:43;-11160.47;;;-3.47;50.63
13954;BME280;7049;49.444;8.522;2023-05-29T05:40:46;-11160.47;;;-3.47;50.45
13954;BME280;7049;49.444;8.522;2023-05-29T05:45:48;-11160.47;;;-3.47;50.08
13954;BME280;7049;49.444;8.522;2023-05-29T05:50:50;-11160.47;;;-3.47;49.52
13954;BME280;7049;49.444;8.522;2023-05-29T05:55:52;-11160.47;;;-3.47;49.48
13954;BME280;7049;49.444;8.522;2023-05-29T06:00:54;-11160.47;;;-3.47;49.83
13954;BME280;7049;49.444;8.522;2023-05-29T06:05:57;-11160.47;;;-3.47;49.33
13954;BME280;7049;49.444;8.522;2023-05-29T06:11:00;-11160.47;;;-3.47;49.85
13954;BME280;7049;49.444;8.522;2023-05-29T06:16:01;-11160.47;;;-3.47;49.26
13954;BME280;7049;49.444;8.522;2023-05-29T06:21:03;-11160.47;;;-3.47;47.96
13954;BME280;7049;49.444;8.522;2023-05-29T06:26:07;-11160.47;;;-3.47;47.67
13954;BME280;7049;49.444;8.522;2023-05-29T06:31:08;-11160.47;;;-3.47;45.29
13954;BME280;7049;49.444;8.522;2023-05-29T06:36:10;-11160.47;;;-3.47;43.72
13954;BME280;7049;49.444;8.522;2023-05-29T06:41:13;-11160.47;;;-3.47;44.40
13954;BME280;7049;49.444;8.522;2023-05-29T06:46:14;-11160.47;;;-3.47;43.78
13954;BME280;7049;49.444;8.522;2023-05-29T06:51:22;-11160.47;;;-3.47;42.84
13954;BME280;7049;49.444;8.522;2023-05-29T06:56:26;-11160.47;;;-3.47;42.58
13954;BME280;7049;49.444;8.522;2023-05-29T07:01:27;-11160.47;;;-3.47;41.38
13954;BME280;7049;49.444;8.522;2023-05-29T07:06:29;-11160.47;;;-3.47;40.77
13954;BME280;7049;49.444;8.522;2023-05-29T07:11:33;-11160.47;;;-3.47;40.91
13954;BME280;7049;49.444;8.522;2023-05-29T07:16:34;-11160.47;;;-3.47;40.15
13954;BME280;7049;49.444;8.522;2023-05-29T07:21:37;-11160.47;;;-3.47;40.17
13954;BME280;7049;49.444;8.522;2023-05-29T07:26:41;-11160.47;;;-3.47;39.61
13954;BME280;7049;49.444;8.522;2023-05-29T07:31:43;-11160.47;;;-3.47;39.69
13954;BME280;7049;49.444;8.522;2023-05-29T07:37:00;-11160.47;;;-3.47;39.24
13954;BME280;7049;49.444;8.522;2023-05-29T07:42:05;-11160.47;;;-3.47;38.51
13954;BME280;7049;49.444;8.522;2023-05-29T07:47:07;-11160.47;;;-3.47;38.48
13954;BME280;7049;49.444;8.522;2023-05-29T07:52:10;-11160.47;;;-3.47;37.69
13954;BME280;7049;49.444;8.522;2023-05-29T07:57:18;-11160.47;;;-3.47;37.55
13954;BME280;7049;49.444;8.522;2023-05-29T08:02:20;-11160.47;;;-3.47;36.46
13954;BME280;7049;49.444;8.522;2023-05-29T08:07:22;-11160.47;;;-3.47;35.32
13954;BME280;7049;49.444;8.522;2023-05-29T08:12:24;-11160.47;;;-3.47;35.09
13954;BME280;7049;49.444;8.522;2023-05-29T08:17:26;-11160.47;;;-3.47;34.89
13954;BME280;7049;49.444;8.522;2023-05-29T08:22:28;-11160.47;;;-3.47;34.69
13954;BME280;7049;49.444;8.522;2023-05-29T08:27:31;-11160.47;;;-3.47;34.08
13954;BME280;7049;49.444;8.522;2023-05-29T08:32:32;-11160.47;;;-3.47;33.63
13954;BME280;7049;49.444;8.522;2023-05-29T08:37:34;-11160.47;;;-3.47;34.03
13954;BME280;7049;49.444;8.522;2023-05-29T08:42:45;-11160.47;;;-3.47;33.38
13954;BME280;7049;49.444;8.522;2023-05-29T08:47:52;-11160.47;;;-3.47;32.50
13954;BME280;7049;49.444;8.522;2023-05-29T08:52:54;-11160.47;;;-3.47;32.57
13954;BME280;7049;49.444;8.522;2023-05-29T08:58:02;-11160.47;;;-3.47;32.85
13954;BME280;7049;49.444;8.522;2023-05-29T09:09:06;-11160.47;;;-3.47;32.00
13954;BME280;7049;49.444;8.522;2023-05-29T09:14:32;-11160.47;;;-3.47;31.68
13954;BME280;7049;49.444;8.522;2023-05-29T09:19:35;-11160.47;;;-3.47;31.36
13954;BME280;7049;49.444;8.522;2023-05-29T09:24:38;-11160.47;;;-3.47;30.68
13954;BME280;7049;49.444;8.522;2023-05-29T09:29:42;-11160.47;;;-3.47;31.20
13954;BME280;7049;49.444;8.522;2023-05-29T09:34:44;-11160.47;;;-3.47;30.14
13954;BME280;7049;49.444;8.522;2023-05-29T09:39:47;-11160.47;;;-3.47;30.47
13954;BME280;7049;49.444;8.522;2023-05-29T09:44:50;-11160.47;;;-3.47;30.12
13954;BME280;7049;49.444;8.522;2023-05-29T09:49:52;-11160.47;;;-3.47;29.40
13954;BME280;7049;49.444;8.522;2023-05-29T09:54:55;-11160.47;;;-3.47;28.92
13954;BME280;7049;49.444;8.522;2023-05-29T09:59:58;-11160.47;;;-3.47;28.68
13954;BME280;7049;49.444;8.522;2023-05-29T10:05:02;-11160.47;;;-3.47;28.47
13954;BME280;7049;49.444;8.522;2023-05-29T10:10:04;-11160.47;;;-3.47;28.63
13954;BME280;7049;49.444;8.522;2023-05-29T10:15:12;-11160.47;;;-3.47;27.23
13954;BME280;7049;49.444;8.522;2023-05-29T10:20:16;-11160.47;;;-3.47;27.13
13954;BME280;7049;49.444;8.522;2023-05-29T10:25:19;-11160.47;;;-3.47;27.44
13954;BME280;7049;49.444;8.522;2023-05-29T10:30:33;-11160.47;;;-3.47;26.82
13954;BME280;7049;49.444;8.522;2023-05-29T10:35:44;-11160.47;;;-3.47;26.43
13954;BME280;7049;49.444;8.522;2023-05-29T10:40:48;-11160.47;;;-3.47;26.31
13954;BME280;7049;49.444;8.522;2023-05-29T10:45:51;-11160.47;;;-3.47;25.83
13954;BME280;7049;49.444;8.522;2023-05-29T10:50:52;-11160.47;;;-3.47;25.59
13954;BME280;7049;49.444;8.522;2023-05-29T10:55:54;-11160.47;;;-3.47;25.15
13954;BME280;7049;49.444;8.522;2023-05-29T11:00:57;-11160.47;;;-3.47;26.11
13954;BME280;7049;49.444;8.522;2023-05-29T11:06:00;-11160.47;;;-3.47;26.30
13954;BME280;7049;49.444;8.522;2023-05-29T11:11:04;-11160.47;;;-3.47;25.40
13954;BME280;7049;49.444;8.522;2023-05-29T11:16:12;-11160.47;;;-3.47;25.09
13954;BME280;7049;49.444;8.522;2023-05-29T11:21:41;-11160.47;;;-3.47;25.34
13954;BME280;7049;49.444;8.522;2023-05-29T11:26:45;-11160.47;;;-3.47;24.72
13954;BME280;7049;49.444;8.522;2023-05-29T11:31:55;-11160.47;;;-3.47;25.82
13954;BME280;7049;49.444;8.522;2023-05-29T11:36:59;-11160.47;;;-3.47;24.90
13954;BME280;7049;49.444;8.522;2023-05-29T11:42:01;-11160.47;;;-3.47;24.71
13954;BME280;7049;49.444;8.522;2023-05-29T11:47:08;-11160.47;;;-3.47;24.65
13954;BME280;7049;49.444;8.522;2023-05-29T11:52:15;-11160.47;;;-3.47;24.81
13954;BME280;7049;49.444;8.522;2023-05-29T11:57:37;-11160.47;;;-3.47;24.81
13954;BME280;7049;49.444;8.522;2023-05-29T12:02:46;-11160.47;;;-3.47;24.47
13954;BME280;7049;49.444;8.522;2023-05-29T12:08:03;-11160.47;;;-3.47;24.63
13954;BME280;7049;49.444;8.522;2023-05-29T12:13:07;-11160.47;;;-3.47;24.00
13954;BME280;7049;49.444;8.522;2023-05-29T12:18:10;-11160.47;;;-3.47;24.26
13954;BME280;7049;49.444;8.522;2023-05-29T12:23:12;-11160.47;;;-3.47;24.86
13954;BME280;7049;49.444;8.522;2023-05-29T12:28:16;-11160.47;;;-3.47;24.32
13954;BME280;7049;49.444;8.522;2023-05-29T12:33:27;-11160.47;;;-3.47;24.31
13954;BME280;7049;49.444;8.522;2023-05-29T12:38:30;-11160.47;;;-3.47;24.54
13954;BME280;7049;49.444;8.522;2023-05-29T12:43:32;-11160.47;;;-3.47;24.46
13954;BME280;7049;49.444;8.522;2023-05-29T12:48:39;-11160.47;;;-3.47;24.88
13954;BME280;7049;49.444;8.522;2023-05-29T12:53:41;-11160.47;;;-3.47;24.07
13954;BME280;7049;49.444;8.522;2023-05-29T12:58:43;-11160.47;;;-3.47;23.85
13954;BME280;7049;49.444;8.522;2023-05-29T13:03:50;-11160.47;;;-3.47;24.01
13954;BME280;7049;49.444;8.522;2023-05-29T13:08:55;-11160.47;;;-3.47;24.21
13954;BME280;7049;49.444;8.522;2023-05-29T13:14:02;-11160.47;;;-3.47;23.09
13954;BME280;7049;49.444;8.522;2023-05-29T13:19:06;-11160.47;;;-3.47;23.00
13954;BME280;7049;49.444;8.522;2023-05-29T13:24:26;-11160.47;;;-3.47;23.04
13954;BME280;7049;49.444;8.522;2023-05-29T13:29:36;-11160.47;;;-3.47;23.16
13954;BME280;7049;49.444;8.522;2023-05-29T13:34:48;-11160.47;;;-3.47;23.04
13954;BME280;7049;49.444;8.522;2023-05-29T13:39:53;-11160.47;;;-3.47;22.85
13954;BME280;7049;49.444;8.522;2023-05-29T13:45:00;-11160.47;;;-3.47;23.18
13954;BME280;7049;49.444;8.522;2023-05-29T14:01:52;-11160.47;;;-3.47;23.16
13954;BME280;7049;49.444;8.522;2023-05-29T14:07:03;-11160.47;;;-3.47;22.96
13954;BME280;7049;49.444;8.522;2023-05-29T14:12:16;-11160.47;;;-3.47;22.73
13954;BME280;7049;49.444;8.522;2023-05-29T14:17:20;-11160.47;;;-3.47;23.16
13954;BME280;7049;49.444;8.522;2023-05-29T14:22:27;-11160.47;;;-3.47;23.02
13954;BME280;7049;49.444;8.522;2023-05-29T14:27:32;-11160.47;;;-3.47;23.10
13954;BME280;7049;49.444;8.522;2023-05-29T14:32:34;-11160.47;;;-3.47;23.06
13954;BME280;7049;49.444;8.522;2023-05-29T14:37:36;-11160.47;;;-3.47;22.67
13954;BME280;7049;49.444;8.522;2023-05-29T14:42:38;-11160.47;;;-3.47;22.59
13954;BME280;7049;49.444;8.522;2023-05-29T14:47:40;-11160.47;;;-3.47;22.83
13954;BME280;7049;49.444;8.522;2023-05-29T14:52:43;-11160.47;;;-3.47;22.55
13954;BME280;7049;49.444;8.522;2023-05-29T14:57:48;-11160.47;;;-3.47;23.03
13954;BME280;7049;49.444;8.522;2023-05-29T15:02:51;-11160.47;;;-3.47;22.48
13954;BME280;7049;49.444;8.522;2023-05-29T15:07:54;-11160.47;;;-3.47;22.74
13954;BME280;7049;49.444;8.522;2023-05-29T15:12:56;-11160.47;;;-3.47;22.68
13954;BME280;7049;49.444;8.522;2023-05-29T15:17:59;-11160.47;;;-3.47;22.93
13954;BME280;7049;49.444;8.522;2023-05-29T15:23:01;-11160.47;;;-3.47;23.07
13954;BME280;7049;49.444;8.522;2023-05-29T15:28:03;-11160.47;;;-3.47;22.70
13954;BME280;7049;49.444;8.522;2023-05-29T15:33:07;-11160.47;;;-3.47;22.43
13954;BME280;7049;49.444;8.522;2023-05-29T15:38:10;-11160.47;;;-3.47;22.39
13954;BME280;7049;49.444;8.522;2023-05-29T15:43:13;-11160.47;;;-3.47;22.41
13954;BME280;7049;49.444;8.522;2023-05-29T15:48:16;-11160.47;;;-3.47;22.57
13954;BME280;7049;49.444;8.522;2023-05-29T15:53:18;-11160.47;;;-3.47;23.14
13954;BME280;7049;49.444;8.522;2023-05-29T15:58:19;-11160.47;;;-3.47;23.08
13954;BME280;7049;49.444;8.522;2023-05-29T16:03:26;-11160.47;;;-3.47;23.12
13954;BME280;7049;49.444;8.522;2023-05-29T16:08:28;-11160.47;;;-3.47;22.58
13954;BME280;7049;49.444;8.522;2023-05-29T16:13:30;-11160.47;;;-3.47;23.40
13954;BME280;7049;49.444;8.522;2023-05-29T16:18:34;-11160.47;;;-3.47;23.78
13954;BME280;7049;49.444;8.522;2023-05-29T16:23:37;-11160.47;;;-3.47;23.45
13954;BME280;7049;49.444;8.522;2023-05-29T16:28:39;-11160.47;;;-3.47;23.90
13954;BME280;7049;49.444;8.522;2023-05-29T16:33:42;-11160.47;;;-3.47;23.99
13954;BME280;7049;49.444;8.522;2023-05-29T16:38:43;-11160.47;;;-3.47;24.59
13954;BME280;7049;49.444;8.522;2023-05-29T16:43:45;-11160.47;;;-3.47;24.67
13954;BME280;7049;49.444;8.522;2023-05-29T16:48:50;-11160.47;;;-3.47;25.03
13954;BME280;7049;49.444;8.522;2023-05-29T16:53:52;-11160.47;;;-3.47;24.92
13954;BME280;7049;49.444;8.522;2023-05-29T16:58:53;-11160.47;;;-3.47;25.23
13954;BME280;7049;49.444;8.522;2023-05-29T17:03:56;-11160.47;;;-3.47;25.54
13954;BME280;7049;49.444;8.522;2023-05-29T17:08:58;-11160.47;;;-3.47;25.72
13954;BME280;7049;49.444;8.522;2023-05-29T17:14:00;-11160.47;;;-3.47;26.09
13954;BME280;7049;49.444;8.522;2023-05-29T17:19:03;-11160.47;;;-3.47;26.23
13954;BME280;7049;49.444;8.522;2023-05-29T17:24:09;-11160.47;;;-3.47;26.41
13954;BME280;7049;49.444;8.522;2023-05-29T17:29:11;-11160.47;;;-3.47;26.48
13954;BME280;7049;49.444;8.522;2023-05-29T17:34:17;-11160.47;;;-3.47;26.80
13954;BME280;7049;49.444;8.522;2023-05-29T17:39:22;-11160.47;;;-3.47;26.97
13954;BME280;7049;49.444;8.522;2023-05-29T17:44:25;-11160.47;;;-3.47;27.25
13954;BME280;7049;49.444;8.522;2023-05-29T17:49:32;-11160.47;;;-3.47;27.29
13954;BME280;7049;49.444;8.522;2023-05-29T17:54:35;-11160.47;;;-3.47;27.68
13954;BME280;7049;49.444;8.522;2023-05-29T17:59:38;-11160.47;;;-3.47;27.75
13954;BME280;7049;49.444;8.522;2023-05-29T18:04:44;-11160.47;;;-3.47;27.75
13954;BME280;7049;49.444;8.522;2023-05-29T18:09:48;-11160.47;;;-3.47;27.88
13954;BME280;7049;49.444;8.522;2023-05-29T18:15:09;-11160.47;;;-3.47;28.14
13954;BME280;7049;49.444;8.522;2023-05-29T18:26:33;-11160.47;;;-3.47;28.72
13954;BME280;7049;49.444;8.522;2023-05-29T18:31:49;-11160.47;;;-3.47;28.80
13954;BME280;7049;49.444;8.522;2023-05-29T18:36:54;-11160.47;;;-3.47;29.24
13954;BME280;7049;49.444;8.522;2023-05-29T18:48:29;-11160.47;;;-3.47;30.00
13954;BME280;7049;49.444;8.522;2023-05-29T18:54:18;-11160.47;;;-3.47;30.70
13954;BME280;7049;49.444;8.522;2023-05-29T18:59:27;-11160.47;;;-3.47;31.73
13954;BME280;7049;49.444;8.522;2023-05-29T19:04:50;-11160.47;;;-3.47;32.49
13954;BME280;7049;49.444;8.522;2023-05-29T19:10:16;-11160.47;;;-3.47;32.98
13954;BME280;7049;49.444;8.522;2023-05-29T19:16:54;-11160.47;;;-3.47;33.45
13954;BME280;7049;49.444;8.522;2023-05-29T19:27:25;-11160.47;;;-3.47;34.32
13954;BME280;7049;49.444;8.522;2023-05-29T19:32:44;-11160.47;;;-3.47;34.74
13954;BME280;7049;49.444;8.522;2023-05-29T19:38:18;-11160.47;;;-3.47;34.98
13954;BME280;7049;49.444;8.522;2023-05-29T19:43:50;-11160.47;;;-3.47;35.52
13954;BME280;7049;49.444;8.522;2023-05-29T20:06:13;-11160.47;;;-3.47;36.63
13954;BME280;7049;49.444;8.522;2023-05-29T20:11:20;-11160.47;;;-3.47;37.06
13954;BME280;7049;49.444;8.522;2023-05-29T20:16:32;-11160.47;;;-3.47;37.67
13954;BME280;7049;49.444;8.522;2023-05-29T20:21:35;-11160.47;;;-3.47;37.68
13954;BME280;7049;49.444;8.522;2023-05-29T20:26:36;-11160.47;;;-3.47;37.83
13954;BME280;7049;49.444;8.522;2023-05-29T20:31:38;-11160.47;;;-3.47;37.98
13954;BME280;7049;49.444;8.522;2023-05-29T20:36:41;-11160.47;;;-3.47;38.71
13954;BME280;7049;49.444;8.522;2023-05-29T20:41:44;-11160.47;;;-3.47;39.35
13954;BME280;7049;49.444;8.522;2023-05-29T20:46:48;-11160.47;;;-3.47;39.38
13954;BME280;7049;49.444;8.522;2023-05-29T20:51:51;-11160.47;;;-3.47;39.83
13954;BME280;7049;49.444;8.522;2023-05-29T20:57:30;-11160.47;;;-3.47;39.65
13954;BME280;7049;49.444;8.522;2023-05-29T21:02:44;-11160.47;;;-3.47;40.28
13954;BME280;7049;49.444;8.522;2023-05-29T21:07:51;-11160.47;;;-3.47;40.44
13954;BME280;7049;49.444;8.522;2023-05-29T21:13:06;-11160.47;;;-3.47;40.28
13954;BME280;7049;49.444;8.522;2023-05-29T21:18:25;-11160.47;;;-3.47;40.40
13954;BME280;7049;49.444;8.522;2023-05-29T21:23:46;-11160.47;;;-3.47;40.80
13954;BME280;7049;49.444;8.522;2023-05-29T21:28:53;-11160.47;;;-3.47;41.52
13954;BME280;7049;49.444;8.522;2023-05-29T21:39:15;-11160.47;;;-3.47;41.84
13954;BME280;7049;49.444;8.522;2023-05-29T21:44:17;-11160.47;;;-3.47;41.70
13954;BME280;7049;49.444;8.522;2023-05-29T21:49:18;-11160.47;;;-3.47;42.09
13954;BME280;7049;49.444;8.522;2023-05-29T21:54:43;-11160.47;;;-3.47;42.14
13954;BME280;7049;49.444;8.522;2023-05-29T21:59:44;-11160.47;;;-3.47;42.32
13954;BME280;7049;49.444;8.522;2023-05-29T22:05:06;-11160.47;;;-3.47;42.74
13954;BME280;7049;49.444;8.522;2023-05-29T22:10:12;-11160.47;;;-3.47;42.59
13954;BME280;7049;49.444;8.522;2023-05-29T22:15:29;-11160.47;;;-3.47;42.96
13954;BME280;7049;49.444;8.522;2023-05-29T22:26:14;-11160.47;;;-3.47;43.12
13954;BME280;7049;49.444;8.522;2023-05-29T22:31:40;-11160.47;;;-3.47;43.31
13954;BME280;7049;49.444;8.522;2023-05-29T22:36:42;-11160.47;;;-3.47;43.17
13954;BME280;7049;49.444;8.522;2023-05-29T22:41:44;-11160.47;;;-3.47;43.42
13954;BME280;7049;49.444;8.522;2023-05-29T22:46:46;-11160.47;;;-3.47;43.68
13954;BME280;7049;49.444;8.522;2023-05-29T22:51:48;-11160.47;;;-3.47;44.12
13954;BME280;7049;49.444;8.522;2023-05-29T22:56:53;-11160.47;;;-3.47;44.49
13954;BME280;7049;49.444;8.522;2023-05-29T23:01:55;-11160.47;;;-3.47;44.44
13954;BME280;7049;49.444;8.522;2023-05-29T23:06:59;-11160.47;;;-3.47;44.92
13954;BME280;7049;49.444;8.522;2023-05-29T23:12:13;-11160.47;;;-3.47;44.69
13954;BME280;7049;49.444;8.522;2023-05-29T23:17:15;-11160.47;;;-3.47;45.20
13954;BME280;7049;49.444;8.522;2023-05-29T23:22:32;-11160.47;;;-3.47;45.60
13954;BME280;7049;49.444;8.522;2023-05-29T23:28:24;-11160.47;;;-3.47;45.96
13954;BME280;7049;49.444;8.522;2023-05-29T23:45:10;-11160.47;;;-3.47;47.01
13954;BME280;7049;49.444;8.522;2023-05-29T23:50:19;-11160.47;;;-3.47;46.74
13954;BME280;7049;49.444;8.522;2023-05-29T23:55:27;-11160.47;;;-3.47;46.57
